Time;durP1;ratioP1;P1;durP2;ratioP2;P2;SDS_P1;SDS_P2;PMS_P1;PMS_P2;Temp;Humidity;BMP_temperature;BMP_pressure;BME280_temperature;BME280_humidity;BME280_pressure;Samples;Min_cycle;Max_cycle;Signal;HPM_P1;HPM_P2
2022/03/30 00:01:23;;;;;;;25.10;14.48;;;6.20;99.90;;;;;;6250153;22;20039;-92
2022/03/30 00:03:49;;;;;;;32.27;15.23;;;6.20;99.90;;;;;;6250118;22;20050;-89
2022/03/30 00:06:15;;;;;;;28.87;14.97;;;6.10;99.90;;;;;;6250005;22;20095;-92
2022/03/30 00:08:42;;;;;;;29.70;14.57;;;6.10;99.90;;;;;;6275653;22;20020;-91
2022/03/30 00:11:09;;;;;;;34.58;15.18;;;6.10;99.90;;;;;;6250202;22;20038;-92
2022/03/30 00:13:35;;;;;;;34.22;14.20;;;6.10;99.90;;;;;;6249954;22;20016;-89
2022/03/30 00:16:03;;;;;;;29.73;14.10;;;6.20;99.90;;;;;;6249820;22;20012;-91
2022/03/30 00:18:28;;;;;;;26.02;13.13;;;6.10;99.90;;;;;;6250032;22;20051;-91
2022/03/30 00:20:54;;;;;;;27.23;14.53;;;6.10;99.90;;;;;;6250269;22;20016;-92
2022/03/30 00:23:20;;;;;;;28.00;13.70;;;6.10;99.90;;;;;;6275754;22;20074;-92
2022/03/30 00:25:46;;;;;;;29.23;14.17;;;6.10;99.90;;;;;;6275759;22;20012;-90
2022/03/30 00:28:12;;;;;;;26.77;13.13;;;6.10;99.90;;;;;;6250289;22;20742;-90
2022/03/30 00:30:38;;;;;;;23.23;13.87;;;6.10;99.90;;;;;;6250177;22;20246;-92
2022/03/30 00:33:04;;;;;;;26.98;13.90;;;6.10;99.90;;;;;;6250056;22;20099;-91
2022/03/30 00:35:30;;;;;;;28.83;13.90;;;6.10;99.90;;;;;;6250119;22;20016;-91
2022/03/30 00:37:56;;;;;;;29.23;14.43;;;6.10;99.90;;;;;;6251234;22;20026;-91
2022/03/30 00:40:21;;;;;;;29.37;13.43;;;6.10;99.90;;;;;;6277588;22;20012;-93
2022/03/30 00:42:47;;;;;;;28.50;13.07;;;6.10;99.90;;;;;;6277678;22;20450;-92
2022/03/30 00:45:16;;;;;;;28.70;13.03;;;6.10;99.90;;;;;;6277472;22;20038;-94
2022/03/30 00:47:43;;;;;;;27.92;12.73;;;6.10;99.90;;;;;;6251776;22;20020;-94
2022/03/30 00:50:10;;;;;;;24.30;13.57;;;6.10;99.90;;;;;;6251876;22;20012;-96
2022/03/30 00:52:37;;;;;;;27.23;12.95;;;6.10;99.90;;;;;;6251683;22;20011;-92
2022/03/30 00:55:04;;;;;;;27.08;12.65;;;6.10;99.90;;;;;;6251939;22;20016;-94
2022/03/30 00:57:32;;;;;;;29.35;13.40;;;6.10;99.90;;;;;;6251816;22;20012;-93
2022/03/30 00:59:58;;;;;;;23.67;12.43;;;6.10;99.90;;;;;;6277360;22;20018;-95
2022/03/30 01:21:40;;;;;;;24.75;12.43;;;6.30;99.90;;;;;;6251911;22;20016;-93
2022/03/30 01:24:11;;;;;;;29.30;13.10;;;6.30;99.90;;;;;;6226362;22;20020;-91
2022/03/30 01:26:37;;;;;;;25.42;12.65;;;6.40;99.90;;;;;;6226529;22;20008;-93
2022/03/30 01:32:25;;;;;;;30.08;13.52;;;6.40;99.90;;;;;;6226358;22;20019;-94
2022/03/30 01:34:36;;;;;;;31.98;13.07;;;6.40;99.90;;;;;;6251508;22;20517;-94
2022/03/30 01:37:05;;;;;;;30.17;13.15;;;6.40;99.90;;;;;;6226073;22;20052;-94
2022/03/30 01:39:31;;;;;;;30.08;13.48;;;6.50;99.90;;;;;;6225879;22;20077;-94
2022/03/30 01:41:57;;;;;;;26.73;13.73;;;6.40;99.90;;;;;;6225827;22;20020;-91
2022/03/30 01:44:24;;;;;;;29.23;14.23;;;6.50;99.90;;;;;;6226326;22;20011;-93
2022/03/30 01:46:53;;;;;;;30.85;13.95;;;6.50;99.90;;;;;;6226152;22;20077;-94
2022/03/30 01:49:21;;;;;;;31.05;14.10;;;6.50;99.90;;;;;;6225634;22;20429;-94
2022/03/30 01:51:55;;;;;;;29.15;14.35;;;6.50;99.90;;;;;;6251299;22;20020;-94
2022/03/30 01:54:22;;;;;;;30.30;14.20;;;6.50;99.90;;;;;;6226415;22;20022;-93
2022/03/30 01:56:50;;;;;;;27.98;14.80;;;6.50;99.90;;;;;;6226097;22;20041;-95
2022/03/30 01:59:16;;;;;;;31.88;13.93;;;6.50;99.90;;;;;;6226332;22;20058;-96
2022/03/30 02:01:42;;;;;;;29.08;14.77;;;6.50;99.90;;;;;;6226118;22;20063;-96
2022/03/30 02:04:09;;;;;;;27.77;14.87;;;6.40;99.90;;;;;;6253603;22;20015;-96
2022/03/30 02:06:39;;;;;;;27.52;14.95;;;6.40;99.90;;;;;;6267358;22;20016;-92
2022/03/30 02:12:18;;;;;;;32.03;16.30;;;6.30;99.90;;;;;;6278933;22;20019;-91
2022/03/30 02:15:14;;;;;;;31.08;16.98;;;6.20;99.90;;;;;;6276277;22;20019;-95
2022/03/30 02:17:54;;;;;;;26.05;15.43;;;6.20;99.90;;;;;;6208752;22;20154;-96
2022/03/30 02:20:20;;;;;;;25.77;14.17;;;6.20;99.90;;;;;;6169107;23;20017;-96
2022/03/30 02:22:46;;;;;;;22.10;11.73;;;6.10;99.90;;;;;;6169161;23;20055;-96
2022/03/30 02:25:12;;;;;;;22.50;10.57;;;6.20;99.90;;;;;;6170841;23;20020;-95
2022/03/30 02:27:38;;;;;;;19.23;9.47;;;6.10;99.90;;;;;;6172915;23;20013;-96
2022/03/30 02:30:05;;;;;;;19.08;8.70;;;6.10;99.90;;;;;;6194805;23;20021;-96
2022/03/30 02:32:30;;;;;;;18.08;6.97;;;6.10;99.90;;;;;;6189626;23;20072;-96
2022/03/30 02:34:56;;;;;;;12.50;6.53;;;6.10;99.90;;;;;;6189477;23;20048;-96
2022/03/30 02:37:22;;;;;;;8.82;4.68;;;6.10;99.90;;;;;;6189456;23;20508;-95
2022/03/30 02:39:48;;;;;;;7.43;3.67;;;6.10;99.90;;;;;;6189573;23;20016;-96
2022/03/30 02:42:14;;;;;;;3.87;1.90;;;6.10;99.90;;;;;;6189553;23;20069;-95
2022/03/30 02:44:40;;;;;;;4.97;1.70;;;6.10;99.90;;;;;;6189067;23;20478;-95
2022/03/30 02:47:07;;;;;;;3.57;1.30;;;6.10;99.90;;;;;;6164412;23;20023;-96
2022/03/30 02:49:33;;;;;;;5.07;1.40;;;6.10;99.90;;;;;;6218581;22;20341;-90
2022/03/30 02:51:59;;;;;;;4.88;1.20;;;6.10;99.90;;;;;;6250135;22;20026;-93
2022/03/30 02:54:25;;;;;;;6.23;1.40;;;6.10;99.90;;;;;;6225199;22;20051;-91
2022/03/30 02:56:51;;;;;;;2.63;1.10;;;6.10;99.90;;;;;;6225410;22;20109;-92
2022/03/30 02:59:17;;;;;;;5.20;1.13;;;6.00;99.90;;;;;;6225338;22;20124;-92
2022/03/30 03:01:43;;;;;;;3.17;1.02;;;6.00;99.90;;;;;;6225977;22;20057;-91
2022/03/30 03:04:09;;;;;;;3.47;1.10;;;6.00;99.90;;;;;;6225247;22;20083;-91
2022/03/30 03:06:34;;;;;;;4.10;0.87;;;6.10;99.90;;;;;;6225721;22;20024;-92
2022/03/30 03:09:00;;;;;;;4.40;0.80;;;6.00;99.90;;;;;;6224795;22;20011;-91
2022/03/30 03:11:26;;;;;;;1.43;0.50;;;6.00;99.90;;;;;;6225267;22;20019;-95
2022/03/30 03:13:52;;;;;;;2.93;0.60;;;6.00;99.90;;;;;;6251198;22;20102;-96
2022/03/30 03:16:18;;;;;;;3.67;0.50;;;5.90;99.90;;;;;;6226038;22;20080;-96
2022/03/30 03:18:45;;;;;;;2.92;0.40;;;5.90;99.90;;;;;;6226670;22;20022;-95
2022/03/30 03:21:11;;;;;;;2.28;0.40;;;5.90;99.90;;;;;;6250962;22;20019;-96
2022/03/30 03:23:37;;;;;;;1.15;0.30;;;5.90;99.90;;;;;;6250890;22;20353;-93
2022/03/30 03:26:03;;;;;;;2.28;0.30;;;5.90;99.90;;;;;;6250416;22;20094;-96
2022/03/30 03:28:30;;;;;;;2.30;0.30;;;5.90;99.90;;;;;;6250810;22;20020;-92
2022/03/30 03:30:56;;;;;;;1.75;0.30;;;5.80;99.90;;;;;;6225277;22;20429;-96
2022/03/30 03:33:21;;;;;;;2.37;0.27;;;5.80;99.90;;;;;;6250426;22;20026;-96
2022/03/30 03:35:47;;;;;;;1.13;0.30;;;5.90;99.90;;;;;;6225380;22;20016;-95
2022/03/30 03:38:13;;;;;;;1.43;0.30;;;5.80;99.90;;;;;;6251370;22;20016;-96
2022/03/30 03:40:40;;;;;;;1.00;0.20;;;5.80;99.90;;;;;;6225988;22;20040;-94
2022/03/30 03:43:05;;;;;;;1.58;0.30;;;5.80;99.90;;;;;;6225232;22;20016;-94
2022/03/30 03:45:32;;;;;;;1.83;0.20;;;5.80;99.90;;;;;;6250606;22;20023;-93
2022/03/30 03:47:57;;;;;;;1.98;0.40;;;5.80;99.90;;;;;;6225471;22;20023;-96
2022/03/30 03:50:23;;;;;;;1.57;0.40;;;5.80;99.90;;;;;;6277555;22;20094;-95
2022/03/30 03:52:49;;;;;;;2.80;0.40;;;5.70;99.90;;;;;;6225282;22;20078;-96
2022/03/30 03:55:15;;;;;;;1.57;0.40;;;5.70;99.90;;;;;;6250478;22;20011;-96
2022/03/30 03:57:42;;;;;;;1.63;0.23;;;5.70;99.90;;;;;;6250851;22;20722;-96
2022/03/30 04:00:09;;;;;;;1.10;0.30;;;5.70;99.90;;;;;;6252298;22;20253;-96
2022/03/30 04:02:35;;;;;;;1.23;0.30;;;5.70;99.90;;;;;;6245881;22;20074;-96
2022/03/30 04:05:09;;;;;;;0.90;0.30;;;5.70;99.90;;;;;;6293322;22;20016;-95
2022/03/30 04:07:38;;;;;;;1.17;0.30;;;5.70;99.90;;;;;;6241916;22;20015;-96
2022/03/30 04:10:06;;;;;;;1.50;0.38;;;5.70;99.90;;;;;;6238852;22;20098;-96
2022/03/30 04:12:35;;;;;;;2.00;0.35;;;5.70;99.90;;;;;;6268598;22;20352;-96
2022/03/30 04:15:22;;;;;;;0.30;0.30;;;5.60;99.90;;;;;;6229092;22;20047;-95
2022/03/30 04:17:48;;;;;;;2.25;0.60;;;5.60;99.90;;;;;;6234820;22;20016;-96
2022/03/30 04:20:15;;;;;;;2.63;0.70;;;5.60;99.90;;;;;;6264510;22;20035;-94
2022/03/30 04:22:42;;;;;;;3.35;0.57;;;5.60;99.90;;;;;;6230727;22;20017;-96
2022/03/30 04:25:08;;;;;;;4.35;0.70;;;5.60;99.90;;;;;;6229307;22;20047;-95
2022/03/30 04:27:34;;;;;;;2.75;0.60;;;5.60;99.90;;;;;;6266023;22;20401;-92
2022/03/30 04:34:06;;;;;;;;;;;5.50;99.90;;;;;;6282359;22;20069;-92
2022/03/30 04:36:32;;;;;;;2.83;0.70;;;5.40;99.90;;;;;;6251923;22;19915;-91
2022/03/30 04:38:57;;;;;;;3.20;0.70;;;5.40;99.90;;;;;;6226689;22;20475;-90
2022/03/30 04:41:23;;;;;;;3.50;0.70;;;5.40;99.90;;;;;;6226834;22;20019;-90
2022/03/30 04:43:49;;;;;;;3.93;0.90;;;5.40;99.90;;;;;;6226724;22;20190;-90
2022/03/30 04:46:15;;;;;;;5.83;0.83;;;5.30;99.90;;;;;;6226370;22;20027;-90
2022/03/30 04:54:57;;;;;;;2.15;0.85;;;5.30;99.90;;;;;;6278684;22;20316;-96
2022/03/30 04:57:23;;;;;;;3.97;1.00;;;5.30;99.90;;;;;;6227095;22;20028;-96
2022/03/30 04:59:53;;;;;;;2.23;0.90;;;5.30;99.90;;;;;;6226712;22;20054;-96
2022/03/30 05:02:19;;;;;;;3.25;0.90;;;5.30;99.90;;;;;;6240352;22;20004;-94
2022/03/30 05:04:47;;;;;;;3.23;1.17;;;5.30;99.90;;;;;;6247745;22;20023;-96
2022/03/30 05:07:15;;;;;;;3.33;1.10;;;5.20;99.90;;;;;;6246341;22;20016;-94
2022/03/30 05:09:47;;;;;;;3.38;1.10;;;5.20;99.90;;;;;;6243237;22;20020;-93
2022/03/30 05:12:28;;;;;;;4.10;1.25;;;5.20;99.90;;;;;;6254565;22;20071;-96
2022/03/30 05:14:54;;;;;;;3.17;1.10;;;5.20;99.90;;;;;;6251927;22;20051;-95
2022/03/30 05:17:20;;;;;;;4.40;1.20;;;5.20;99.90;;;;;;6251949;22;20073;-93
2022/03/30 05:20:32;;;;;;;3.20;1.20;;;5.10;99.90;;;;;;6230299;22;20069;-95
2022/03/30 05:23:06;;;;;;;3.58;1.40;;;5.10;99.90;;;;;;6108383;23;20022;-96
2022/03/30 05:25:38;;;;;;;5.43;1.40;;;5.10;99.90;;;;;;6227141;22;20094;-95
2022/03/30 05:28:04;;;;;;;4.88;1.92;;;5.10;99.90;;;;;;6229110;22;20027;-94
2022/03/30 05:30:30;;;;;;;6.50;1.60;;;5.10;99.90;;;;;;6252013;22;20019;-92
2022/03/30 05:32:56;;;;;;;4.40;1.57;;;5.10;99.90;;;;;;6226161;22;20787;-92
2022/03/30 05:35:21;;;;;;;6.23;1.50;;;5.10;99.90;;;;;;6286129;22;20024;-96
2022/03/30 05:37:48;;;;;;;5.07;1.47;;;5.20;99.90;;;;;;6227038;22;20027;-95
2022/03/30 05:40:16;;;;;;;;;;;5.20;99.90;;;;;;6227372;22;20012;-96
2022/03/30 05:42:43;;;;;;;3.33;1.48;;;5.10;99.90;;;;;;6227821;22;19919;-96
2022/03/30 05:45:08;;;;;;;5.30;1.98;;;5.20;99.90;;;;;;6226484;22;20441;-95
2022/03/30 05:47:34;;;;;;;3.53;1.40;;;5.20;99.90;;;;;;6226350;22;20030;-95
2022/03/30 05:50:01;;;;;;;3.07;1.60;;;5.20;99.90;;;;;;6226013;22;20027;-94
2022/03/30 05:52:27;;;;;;;;;;;5.20;99.90;;;;;;6226361;22;20012;-94
2022/03/30 05:54:52;;;;;;;7.25;1.70;;;5.20;99.90;;;;;;6225515;22;19915;-96
2022/03/30 05:57:21;;;;;;;9.27;1.90;;;5.20;99.90;;;;;;6251453;22;20483;-94
2022/03/30 05:59:48;;;;;;;5.55;1.83;;;5.20;99.90;;;;;;6225937;22;20023;-95
2022/03/30 06:02:15;;;;;;;;;;;5.30;99.90;;;;;;6226527;22;20115;-94
2022/03/30 06:04:49;;;;;;;4.95;1.88;;;5.20;99.90;;;;;;6225862;22;20332;-92
2022/03/30 06:07:15;;;;;;;6.85;1.70;;;5.30;99.90;;;;;;6225865;22;20440;-95
2022/03/30 06:09:41;;;;;;;5.73;1.77;;;5.30;99.90;;;;;;6225928;22;20023;-94
2022/03/30 06:12:07;;;;;;;5.27;1.87;;;5.30;99.90;;;;;;6236955;22;20012;-94
2022/03/30 06:14:36;;;;;;;3.72;1.60;;;5.40;99.90;;;;;;6241674;22;20016;-96
2022/03/30 06:17:26;;;;;;;3.90;1.45;;;5.40;99.90;;;;;;6240254;22;20012;-93
2022/03/30 06:19:53;;;;;;;5.97;1.85;;;5.30;99.90;;;;;;6237564;22;20050;-95
2022/03/30 06:22:29;;;;;;;3.90;2.00;;;5.30;99.90;;;;;;6264268;22;20019;-93
2022/03/30 06:48:22;;;;;;;8.30;1.75;;;5.60;99.90;;;;;;6284235;22;20030;-92
2022/03/30 06:55:58;;;;;;;8.60;1.73;;;5.70;99.90;;;;;;6286846;22;20027;-93
2022/03/30 06:58:26;;;;;;;11.50;1.83;;;5.80;99.90;;;;;;6276785;22;20095;-95
2022/03/30 07:00:59;;;;;;;7.68;1.70;;;5.80;99.90;;;;;;6224744;22;20016;-95
2022/03/30 07:03:28;;;;;;;8.38;1.98;;;5.90;99.90;;;;;;6226383;22;20022;-93
2022/03/30 07:11:07;;;;;;;6.45;1.58;;;6.20;99.90;;;;;;6279975;22;20030;-87
2022/03/30 07:14:36;;;;;;;7.55;1.30;;;6.20;99.90;;;;;;6225760;22;20047;-92
2022/03/30 07:25:54;;;;;;;6.72;2.90;;;6.80;99.90;;;;;;6277849;22;20345;-93
2022/03/30 07:28:22;;;;;;;6.65;2.25;;;6.90;99.90;;;;;;6226030;22;20030;-94
2022/03/30 07:30:52;;;;;;;6.97;2.03;;;7.00;99.90;;;;;;6228375;22;20094;-94
2022/03/30 07:33:36;;;;;;;8.23;1.70;;;7.00;99.90;;;;;;6228356;22;20055;-93
2022/03/30 07:36:02;;;;;;;4.53;1.10;;;7.00;99.90;;;;;;6228129;22;20064;-95
2022/03/30 07:43:52;;;;;;;6.35;0.95;;;6.90;99.90;;;;;;6281421;22;20020;-96
2022/03/30 07:46:18;;;;;;;5.27;0.97;;;6.80;99.90;;;;;;6230396;22;20024;-94
2022/03/30 07:48:44;;;;;;;3.47;1.17;;;6.80;99.90;;;;;;6226214;22;20095;-90
2022/03/30 07:53:45;;;;;;;4.72;0.80;;;6.50;99.90;;;;;;6291186;22;20020;-94
2022/03/30 07:56:43;;;;;;;5.03;1.00;;;6.40;99.90;;;;;;6261137;22;20072;-92
2022/03/30 07:59:29;;;;;;;7.35;1.00;;;6.30;99.90;;;;;;6238396;22;20022;-92
2022/03/30 08:25:51;;;;;;;7.32;0.80;;;6.10;99.90;;;;;;6279713;22;20471;-95
2022/03/30 08:28:16;;;;;;;4.37;0.90;;;6.00;99.90;;;;;;6228121;22;20020;-96
2022/03/30 08:30:42;;;;;;;2.77;0.60;;;6.00;99.90;;;;;;6228574;22;20014;-94
2022/03/30 08:33:08;;;;;;;5.63;0.67;;;6.10;99.90;;;;;;6227290;22;20030;-93
2022/03/30 08:35:34;;;;;;;4.68;0.60;;;6.10;99.90;;;;;;6229828;22;20012;-96
2022/03/30 08:38:00;;;;;;;2.70;0.50;;;6.20;99.90;;;;;;6229915;22;20069;-92
2022/03/30 08:59:55;;;;;;;6.97;0.88;;;6.60;99.90;;;;;;6260508;22;20023;-94
2022/03/30 09:02:21;;;;;;;4.57;0.57;;;6.60;99.90;;;;;;6234906;22;20019;-96
2022/03/30 09:04:47;;;;;;;3.93;0.60;;;6.60;99.90;;;;;;6232700;22;20165;-90
2022/03/30 09:07:19;;;;;;;2.83;0.40;;;6.60;99.90;;;;;;6233546;22;20352;-95
2022/03/30 09:13:44;;;;;;;;;;;6.70;99.90;;;;;;6280681;22;20181;-93
2022/03/30 09:16:11;;;;;;;3.70;0.68;;;6.70;99.90;;;;;;6252071;22;19938;-95
2022/03/30 09:18:36;;;;;;;5.38;0.70;;;6.70;99.90;;;;;;6251694;22;20023;-95
2022/03/30 09:21:02;;;;;;;3.43;0.60;;;6.80;99.90;;;;;;6226806;22;20016;-92
2022/03/30 09:23:29;;;;;;;4.27;0.67;;;6.90;99.90;;;;;;6226793;22;20016;-95
2022/03/30 09:25:55;;;;;;;3.00;0.50;;;6.90;99.90;;;;;;6251743;22;20050;-96
2022/03/30 09:30:57;;;;;;;6.15;1.00;;;7.00;99.90;;;;;;6282047;22;20278;-94
2022/03/30 09:33:24;;;;;;;6.35;0.82;;;7.00;99.90;;;;;;6234990;22;20016;-96
2022/03/30 09:35:50;;;;;;;5.32;0.55;;;7.00;99.90;;;;;;6227880;22;20103;-93
2022/03/30 09:38:59;;;;;;;8.27;0.82;;;6.90;99.90;;;;;;6228181;22;20015;-94
2022/03/30 09:42:14;;;;;;;;;;;;;;;;;;;;;
2022/03/30 09:45:45;;;;;;;4.57;1.20;;;6.90;99.90;;;;;;6251428;22;20437;-91
2022/03/30 09:58:36;;;;;;;8.95;1.52;;;7.10;99.90;;;;;;6265092;22;20089;-95
2022/03/30 10:01:08;;;;;;;5.18;1.10;;;7.20;99.90;;;;;;6230293;22;20058;-95
2022/03/30 10:03:37;;;;;;;6.45;1.10;;;7.30;99.90;;;;;;6228586;22;20020;-93
2022/03/30 10:06:03;;;;;;;4.72;1.05;;;7.30;99.90;;;;;;6228732;22;20453;-94
2022/03/30 10:17:48;;;;;;;5.95;1.00;;;7.60;99.90;;;;;;6278947;22;20024;-96
2022/03/30 10:20:14;;;;;;;6.00;1.13;;;7.50;99.90;;;;;;6226149;22;20031;-96
2022/03/30 10:23:05;;;;;;;6.07;1.20;;;7.40;99.90;;;;;;6226299;22;20015;-95
2022/03/30 10:28:39;;;;;;;7.15;0.95;;;7.30;99.90;;;;;;6283519;22;20034;-94
2022/03/30 10:31:05;;;;;;;10.82;1.58;;;7.20;99.90;;;;;;6258616;22;20464;-93
2022/03/30 10:33:40;;;;;;;6.27;1.20;;;7.30;99.90;;;;;;6238306;22;20016;-89
2022/03/30 10:43:12;;;;;;;8.32;0.90;;;7.70;99.90;;;;;;6278649;22;20387;-96
2022/03/30 10:45:49;;;;;;;5.03;0.70;;;7.60;99.90;;;;;;6226647;22;20479;-94
2022/03/30 10:48:36;;;;;;;5.15;0.85;;;7.60;99.90;;;;;;6227164;22;20180;-94
2022/03/30 10:51:10;;;;;;;6.77;0.97;;;7.50;99.90;;;;;;6226949;22;20039;-95
2022/03/30 10:53:42;;;;;;;7.18;0.88;;;7.50;99.90;;;;;;6225722;22;20758;-94
2022/03/30 10:58:49;;;;;;;5.28;0.70;;;7.60;99.90;;;;;;6277920;22;20024;-95
2022/03/30 11:01:15;;;;;;;5.65;0.60;;;7.70;99.90;;;;;;6225457;22;20075;-95
2022/03/30 11:04:25;;;;;;;3.87;0.63;;;7.80;99.90;;;;;;6225387;22;20016;-93
2022/03/30 11:06:54;;;;;;;4.78;0.52;;;7.80;99.90;;;;;;6220247;22;20084;-96
2022/03/30 11:09:23;;;;;;;4.70;0.82;;;7.90;99.90;;;;;;6225526;22;20051;-92
2022/03/30 11:12:13;;;;;;;2.13;0.50;;;8.00;99.90;;;;;;6225682;22;20015;-95
2022/03/30 11:14:44;;;;;;;3.63;0.45;;;8.20;98.10;;;;;;6214045;22;20069;-95
2022/03/30 11:17:40;;;;;;;4.20;0.50;;;8.20;98.00;;;;;;6225512;22;20022;-95
2022/03/30 11:20:31;;;;;;;3.25;0.63;;;8.20;97.50;;;;;;6225403;22;20015;-95
2022/03/30 11:27:10;;;;;;;;;;;8.30;95.70;;;;;;6278352;22;20015;-94
2022/03/30 11:32:26;;;;;;;5.18;1.38;;;8.40;96.00;;;;;;6277632;22;20531;-95
2022/03/30 11:35:46;;;;;;;2.78;0.60;;;8.40;96.20;;;;;;6225486;22;20461;-95
2022/03/30 11:38:32;;;;;;;2.88;0.50;;;8.30;96.40;;;;;;6225975;22;20069;-94
2022/03/30 11:41:05;;;;;;;4.63;0.70;;;8.20;95.80;;;;;;6228298;22;20019;-95
2022/03/30 12:28:33;;;;;;;3.40;0.40;;;8.40;94.00;;;;;;6277565;22;20099;-89
2022/03/30 12:31:00;;;;;;;3.08;0.60;;;8.50;93.60;;;;;;6224797;22;20040;-89
2022/03/30 12:33:26;;;;;;;6.15;0.65;;;8.40;93.10;;;;;;6229519;22;20023;-90
2022/03/30 12:35:53;;;;;;;4.43;0.50;;;8.50;92.30;;;;;;6232949;22;20407;-88
2022/03/30 12:38:20;;;;;;;;;;;8.50;92.10;;;;;;6229215;22;20016;-90
2022/03/30 12:40:52;;;;;;;4.25;0.60;;;8.40;91.40;;;;;;6228052;22;19989;-90
2022/03/30 12:43:28;;;;;;;5.57;0.60;;;8.40;91.70;;;;;;6227576;22;20014;-88
2022/03/30 12:45:56;;;;;;;4.53;0.60;;;8.50;91.80;;;;;;6227097;22;20019;-88
2022/03/30 12:48:31;;;;;;;3.47;0.60;;;8.50;91.50;;;;;;6238654;22;20016;-94
2022/03/30 12:50:59;;;;;;;6.10;0.70;;;8.60;91.30;;;;;;6206241;22;20503;-93
2022/03/30 13:17:09;;;;;;;5.50;0.70;;;9.10;87.40;;;;;;6290257;22;20019;-94
2022/03/30 13:19:36;;;;;;;4.38;0.82;;;8.80;87.20;;;;;;6201434;22;20050;-93
2022/03/30 13:22:06;;;;;;;;;;;8.70;88.40;;;;;;6257293;22;20011;-93
2022/03/30 13:24:58;;;;;;;4.68;0.88;;;8.60;89.60;;;;;;6257341;22;19986;-92
2022/03/30 13:40:23;;;;;;;4.18;0.65;;;8.50;90.40;;;;;;6313479;22;20019;-96
2022/03/30 13:42:53;;;;;;;5.10;0.70;;;8.40;89.90;;;;;;6235645;22;20027;-95
2022/03/30 13:45:20;;;;;;;4.25;0.70;;;8.30;89.80;;;;;;6233892;22;20012;-95
2022/03/30 15:12:43;;;;;;;4.63;0.68;;;7.80;89.20;;;;;;6316155;22;20023;-94
2022/03/30 15:17:51;;;;;;;3.30;0.73;;;7.90;88.80;;;;;;6279423;22;20020;-93
2022/03/30 19:19:51;;;;;;;3.05;0.38;;;5.40;91.30;;;;;;6247536;22;20094;-94
2022/03/30 21:42:24;;;;;;;2.80;0.60;;;4.50;92.70;;;;;;6280721;22;20031;-94
2022/03/30 22:21:05;;;;;;;2.03;0.52;;;4.40;95.10;;;;;;6294783;22;20015;-94
2022/03/30 22:24:22;;;;;;;7.20;1.00;;;4.40;95.30;;;;;;6258673;22;20061;-93
2022/03/30 22:35:42;;;;;;;;;;;4.50;96.10;;;;;;6263004;22;20020;-95
2022/03/30 22:43:19;;;;;;;6.38;0.63;;;4.40;96.20;;;;;;6303115;22;20130;-92
2022/03/30 23:14:14;;;;;;;5.10;0.95;;;4.40;99.90;;;;;;6277821;22;20040;-96
2022/03/30 23:16:40;;;;;;;4.05;0.75;;;4.50;99.90;;;;;;6227170;22;20015;-96
2022/03/30 23:37:14;;;;;;;5.60;0.98;;;4.80;99.90;;;;;;6277562;22;20020;-95
2022/03/30 23:39:39;;;;;;;7.43;0.70;;;4.80;99.90;;;;;;6225843;22;20043;-92
2022/03/30 23:42:05;;;;;;;3.17;0.67;;;4.80;99.90;;;;;;6225298;22;20030;-92
2022/03/30 23:44:31;;;;;;;7.30;0.83;;;4.80;99.90;;;;;;6225346;22;20012;-91
2022/03/30 23:46:57;;;;;;;4.93;0.80;;;4.80;99.90;;;;;;6225390;22;20023;-91
2022/03/30 23:49:22;;;;;;;8.77;0.90;;;4.80;99.90;;;;;;6225156;22;20023;-92
2022/03/30 23:51:48;;;;;;;7.20;1.10;;;4.80;99.90;;;;;;6225198;22;20020;-94
2022/03/30 23:54:15;;;;;;;5.30;0.93;;;4.80;99.90;;;;;;6225174;22;20058;-95
2022/03/30 23:56:41;;;;;;;;;;;4.80;99.90;;;;;;6250871;22;20445;-92
2022/03/30 23:59:07;;;;;;;3.33;0.63;;;4.80;99.90;;;;;;6225072;22;19911;-93
